Time;durP1;ratioP1;P1;durP2;ratioP2;P2;SDS_P1;SDS_P2;PMS_P1;PMS_P2;Temp;Humidity;BMP_temperature;BMP_pressure;BME280_temperature;BME280_humidity;BME280_pressure;Samples;Min_cycle;Max_cycle;Signal;HPM_P1;HPM_P2
2022/11/07 00:01:22;;;;;;;2.92;1.35;;;;;;;7.46;91.17;93872.50;4876895;29;20059;-54
2022/11/07 00:03:52;;;;;;;4.07;1.37;;;;;;;7.60;89.73;93855.28;4874697;29;20083;-54
2022/11/07 00:06:19;;;;;;;3.33;1.30;;;;;;;7.58;90.62;93855.66;4875280;29;20045;-52
2022/11/07 00:08:45;;;;;;;2.38;1.10;;;;;;;7.63;90.18;93849.03;4875781;29;20065;-56
2022/11/07 00:11:12;;;;;;;2.55;1.30;;;;;;;7.61;90.85;93851.38;4876511;29;20466;-54
2022/11/07 00:13:39;;;;;;;2.85;1.25;;;;;;;7.53;90.95;93847.13;4875621;29;20079;-57
2022/11/07 00:16:08;;;;;;;3.80;1.80;;;;;;;7.37;91.37;93853.03;4876473;29;20089;-52
2022/11/07 00:18:35;;;;;;;3.28;1.27;;;;;;;7.22;91.97;93857.75;4875597;29;20550;-53
2022/11/07 00:21:03;;;;;;;2.55;1.30;;;;;;;7.16;92.97;93857.41;4874957;29;20092;-53
2022/11/07 00:23:30;;;;;;;3.08;1.35;;;;;;;7.13;93.19;93865.59;4876083;29;20081;-53
2022/11/07 00:26:07;;;;;;;3.42;1.80;;;;;;;6.83;92.86;93879.72;4876480;29;20059;-52
2022/11/07 00:28:40;;;;;;;4.10;1.60;;;;;;;6.83;94.50;93876.97;4863541;29;20056;-55
2022/11/07 00:31:09;;;;;;;3.47;1.20;;;;;;;6.85;94.88;93877.38;4857917;29;20047;-52
2022/11/07 00:33:35;;;;;;;4.13;1.60;;;;;;;6.77;94.55;93882.81;4840852;29;20104;-52
2022/11/07 00:36:03;;;;;;;3.95;1.60;;;;;;;6.69;95.00;93886.72;4857218;29;20184;-55
2022/11/07 00:38:29;;;;;;;3.85;1.73;;;;;;;6.43;96.04;93892.59;4856994;29;20053;-51
2022/11/07 00:41:02;;;;;;;5.07;2.00;;;;;;;6.37;95.96;93898.41;4890465;29;20440;-51
2022/11/07 00:43:29;;;;;;;4.00;2.10;;;;;;;6.33;96.58;93891.41;4877464;29;20115;-50
2022/11/07 00:45:56;;;;;;;3.63;1.73;;;;;;;6.18;96.63;93896.09;4894245;29;20044;-52
2022/11/07 00:48:23;;;;;;;3.90;1.75;;;;;;;6.05;97.42;93892.16;4894374;29;20066;-51
2022/11/07 00:50:50;;;;;;;5.15;2.83;;;;;;;5.75;99.32;93907.63;4893680;29;20047;-51
2022/11/07 00:53:17;;;;;;;6.80;2.87;;;;;;;5.84;98.95;93911.94;4894257;29;20660;-54
2022/11/07 00:55:43;;;;;;;5.07;2.60;;;;;;;5.78;100.00;93901.41;4893176;29;20044;-51
2022/11/07 00:58:11;;;;;;;4.10;2.15;;;;;;;5.93;100.00;93909.63;4894108;29;20059;-56
2022/11/07 01:00:41;;;;;;;4.40;1.90;;;;;;;6.07;100.00;93917.84;4893295;29;20052;-54
2022/11/07 01:05:58;;;;;;;5.40;2.80;;;;;;;5.92;100.00;93914.31;4893172;29;20044;-55
2022/11/07 01:08:25;;;;;;;5.13;2.55;;;;;;;5.85;100.00;93911.53;4893195;29;20379;-54
2022/11/07 01:10:53;;;;;;;9.20;4.30;;;;;;;5.69;100.00;93909.16;4893227;29;20051;-56
2022/11/07 01:13:20;;;;;;;6.82;3.10;;;;;;;5.67;100.00;93906.03;4893817;29;20056;-57
2022/11/07 01:15:47;;;;;;;26.83;6.85;;;;;;;5.64;100.00;93900.63;4893215;29;20083;-56
2022/11/07 01:18:14;;;;;;;31.10;9.03;;;;;;;5.57;100.00;93896.72;4893824;29;20104;-54
2022/11/07 01:20:41;;;;;;;33.63;10.00;;;;;;;5.55;100.00;93895.50;4892995;29;20056;-53
2022/11/07 01:23:08;;;;;;;15.07;5.18;;;;;;;5.49;100.00;93891.59;4893845;29;20048;-55
2022/11/07 01:25:36;;;;;;;6.70;2.30;;;;;;;5.35;100.00;93901.28;4876252;29;20508;-59
2022/11/07 01:28:05;;;;;;;7.05;2.50;;;;;;;5.34;100.00;93904.38;4893805;29;20048;-52
2022/11/07 01:30:32;;;;;;;3.90;1.70;;;;;;;5.38;100.00;93910.63;4893179;29;20060;-53
2022/11/07 01:32:59;;;;;;;3.70;1.80;;;;;;;5.30;100.00;93923.41;4893395;29;20044;-54
2022/11/07 01:35:25;;;;;;;4.18;2.20;;;;;;;5.19;100.00;93917.13;4893493;29;20111;-50
2022/11/07 01:37:52;;;;;;;6.20;2.30;;;;;;;5.06;100.00;93915.91;4892729;29;20048;-53
2022/11/07 01:40:19;;;;;;;6.75;3.15;;;;;;;5.00;100.00;93916.25;4881335;29;20057;-55
2022/11/07 01:42:45;;;;;;;7.13;3.90;;;;;;;4.84;100.00;93915.00;4874046;29;20059;-48
2022/11/07 01:45:19;;;;;;;6.82;3.15;;;;;;;4.73;100.00;93921.16;4874892;29;20045;-51
2022/11/07 01:47:47;;;;;;;8.18;4.75;;;;;;;4.73;100.00;93914.94;4874118;29;20053;-53
2022/11/07 01:50:14;;;;;;;8.82;4.45;;;;;;;4.64;100.00;93923.41;4858525;29;20548;-53
2022/11/07 01:52:45;;;;;;;6.38;3.22;;;;;;;4.50;100.00;93912.41;4873704;29;20060;-56
2022/11/07 01:55:22;;;;;;;5.73;3.50;;;;;;;4.58;100.00;93920.25;4874808;29;20041;-53
2022/11/07 01:57:56;;;;;;;5.45;2.97;;;;;;;4.61;100.00;93918.72;4857327;29;20059;-52
2022/11/07 02:00:23;;;;;;;4.30;2.10;;;;;;;4.60;100.00;93920.66;4874449;29;20117;-52
2022/11/07 02:02:55;;;;;;;4.05;1.95;;;;;;;4.57;100.00;93926.06;4874110;29;20052;-52
2022/11/07 02:05:38;;;;;;;5.22;2.10;;;;;;;4.48;100.00;93923.66;4874525;29;20116;-52
2022/11/07 02:08:07;;;;;;;3.97;1.60;;;;;;;4.50;100.00;93924.06;4857015;29;20053;-56
2022/11/07 02:10:34;;;;;;;8.93;4.03;;;;;;;4.60;100.00;93922.59;4873590;29;20053;-55
2022/11/07 02:13:01;;;;;;;4.25;2.22;;;;;;;4.58;100.00;93912.09;4874467;29;20045;-57
2022/11/07 02:15:28;;;;;;;5.50;2.40;;;;;;;4.64;100.00;93901.66;4874528;29;20057;-51
2022/11/07 02:17:57;;;;;;;4.90;2.40;;;;;;;4.60;100.00;93900.84;4873401;29;20622;-47
2022/11/07 02:20:23;;;;;;;4.17;2.10;;;;;;;4.60;100.00;93896.19;4876972;29;20433;-53
2022/11/07 02:22:53;;;;;;;5.00;2.13;;;;;;;4.56;100.00;93905.47;4877625;29;20059;-51
2022/11/07 02:25:20;;;;;;;6.95;2.28;;;;;;;4.51;100.00;93903.13;4878239;29;20057;-51
2022/11/07 02:27:52;;;;;;;3.83;1.90;;;;;;;4.38;100.00;93895.25;4877122;29;20085;-55
2022/11/07 02:30:23;;;;;;;8.80;1.83;;;;;;;4.38;100.00;93897.19;4878059;29;20053;-51
2022/11/07 02:32:50;;;;;;;4.47;2.00;;;;;;;4.40;100.00;93903.81;4877275;29;20041;-55
2022/11/07 02:35:39;;;;;;;4.13;1.73;;;;;;;4.37;100.00;93895.66;4861511;29;20049;-50
2022/11/07 02:38:32;;;;;;;3.50;1.88;;;;;;;4.32;100.00;93904.13;4877362;29;20746;-54
2022/11/07 02:41:14;;;;;;;4.20;2.00;;;;;;;4.25;100.00;93902.13;4893862;29;20643;-52
2022/11/07 02:43:47;;;;;;;4.85;2.30;;;;;;;4.30;100.00;93907.22;4895883;29;20062;-56
2022/11/07 02:46:15;;;;;;;4.53;2.17;;;;;;;4.34;100.00;93918.13;4896592;29;20061;-52
2022/11/07 02:48:47;;;;;;;5.63;2.20;;;;;;;4.35;100.00;93919.69;4895591;29;20048;-50
2022/11/07 02:51:14;;;;;;;4.90;2.10;;;;;;;4.34;100.00;93913.47;4880068;29;20693;-55
2022/11/07 02:53:41;;;;;;;4.68;1.77;;;;;;;4.31;100.00;93911.50;4895476;29;20083;-52
2022/11/07 02:56:08;;;;;;;4.00;1.90;;;;;;;4.31;100.00;93914.22;4896545;29;20508;-50
2022/11/07 02:58:35;;;;;;;3.73;1.57;;;;;;;4.26;100.00;93924.66;4895762;29;20429;-52
2022/11/07 03:01:05;;;;;;;4.47;1.60;;;;;;;4.24;100.00;93922.31;4895804;29;20040;-54
2022/11/07 03:03:39;;;;;;;4.40;2.35;;;;;;;4.26;100.00;93919.22;4896067;29;20107;-49
2022/11/07 03:06:09;;;;;;;4.20;1.73;;;;;;;4.26;100.00;93921.94;4896255;29;20053;-53
2022/11/07 03:08:35;;;;;;;4.05;1.80;;;;;;;4.22;100.00;93934.69;4895621;29;20052;-54
2022/11/07 03:11:03;;;;;;;5.13;2.10;;;;;;;4.24;100.00;93941.31;4879129;29;20040;-52
2022/11/07 03:13:30;;;;;;;4.70;1.90;;;;;;;4.24;100.00;93943.25;4895745;29;20080;-52
2022/11/07 03:15:57;;;;;;;4.07;2.08;;;;;;;4.34;100.00;93932.47;4895707;29;20044;-49
2022/11/07 03:18:24;;;;;;;5.85;1.95;;;;;;;4.18;100.00;93926.50;4895875;29;20457;-49
2022/11/07 03:20:51;;;;;;;5.18;2.30;;;;;;;4.04;100.00;93932.59;4895309;29;20757;-54
2022/11/07 03:23:17;;;;;;;5.07;2.50;;;;;;;3.99;100.00;93927.50;4879300;29;20063;-53
2022/11/07 03:25:44;;;;;;;4.85;2.28;;;;;;;3.98;100.00;93936.78;4895217;29;20607;-50
2022/11/07 03:28:10;;;;;;;5.00;2.72;;;;;;;4.03;100.00;93935.69;4879371;29;20056;-52
2022/11/07 03:30:37;;;;;;;7.38;2.67;;;;;;;3.96;100.00;93926.34;4894038;29;20151;-52
2022/11/07 03:33:04;;;;;;;6.10;2.90;;;;;;;3.99;100.00;93939.16;4878312;29;20048;-56
2022/11/07 03:35:31;;;;;;;5.20;2.80;;;;;;;3.98;100.00;93940.31;4895320;29;20135;-53
2022/11/07 03:37:58;;;;;;;5.40;3.13;;;;;;;3.90;100.00;93941.38;4895448;29;20071;-49
2022/11/07 03:40:25;;;;;;;10.90;3.50;;;;;;;3.68;100.00;93939.59;4882835;29;20520;-53
2022/11/07 03:42:52;;;;;;;5.70;3.20;;;;;;;3.77;100.00;93937.38;4876203;29;20052;-51
2022/11/07 03:45:18;;;;;;;7.28;3.50;;;;;;;3.74;100.00;93936.19;4876755;29;20486;-52
2022/11/07 03:47:45;;;;;;;7.10;3.30;;;;;;;3.77;100.00;93934.66;4859660;29;20049;-52
2022/11/07 03:50:18;;;;;;;6.65;3.20;;;;;;;3.76;100.00;93939.31;4876796;29;20051;-55
2022/11/07 03:52:46;;;;;;;6.63;3.45;;;;;;;3.79;100.00;93935.84;4874434;29;20057;-48
2022/11/07 03:55:17;;;;;;;5.80;3.10;;;;;;;3.74;100.00;93952.47;4877041;29;20052;-50
2022/11/07 03:57:44;;;;;;;6.30;3.15;;;;;;;3.73;100.00;93950.91;4876117;29;20053;-56
2022/11/07 04:00:12;;;;;;;6.93;3.43;;;;;;;3.69;100.00;93949.31;4876563;29;20053;-48
2022/11/07 04:02:39;;;;;;;6.53;3.45;;;;;;;3.62;100.00;93943.78;4875913;29;20060;-48
2022/11/07 04:05:06;;;;;;;10.18;4.10;;;;;;;3.40;100.00;93952.47;4876123;29;20530;-47
2022/11/07 04:07:33;;;;;;;7.20;3.58;;;;;;;3.45;100.00;93942.44;4873359;29;20053;-51
2022/11/07 04:10:00;;;;;;;7.32;4.10;;;;;;;3.44;100.00;93949.00;4869115;29;20045;-57
2022/11/07 04:17:57;;;;;;;7.10;3.97;;;;;;;3.46;100.00;93954.84;4856797;29;20045;-50
2022/11/07 04:20:23;;;;;;;9.38;4.00;;;;;;;3.37;100.00;93957.84;4856970;29;20053;-53
2022/11/07 04:22:50;;;;;;;10.13;4.43;;;;;;;3.39;100.00;93966.38;4857145;29;20518;-55
2022/11/07 04:25:16;;;;;;;10.00;5.20;;;;;;;3.26;100.00;93965.03;4857786;29;20053;-54
2022/11/07 04:27:43;;;;;;;11.20;5.53;;;;;;;3.38;100.00;93970.22;4856378;29;20053;-53
2022/11/07 04:30:18;;;;;;;12.05;5.75;;;;;;;3.39;100.00;93963.66;4857132;29;20041;-52
2022/11/07 04:32:47;;;;;;;12.15;6.10;;;;;;;3.39;100.00;93969.09;4856721;29;20045;-55
2022/11/07 04:35:15;;;;;;;11.40;6.38;;;;;;;3.44;100.00;93968.78;4857444;29;20089;-55
2022/11/07 04:37:42;;;;;;;11.23;6.03;;;;;;;3.40;100.00;93967.94;4875921;29;20057;-54
2022/11/07 04:40:09;;;;;;;14.88;6.80;;;;;;;3.45;100.00;93973.03;4887063;29;20099;-57
2022/11/07 04:42:36;;;;;;;16.25;7.28;;;;;;;3.57;100.00;93980.19;4893698;29;20040;-54
2022/11/07 04:45:04;;;;;;;12.38;6.55;;;;;;;3.58;100.00;93974.38;4895019;29;20062;-56
2022/11/07 04:47:31;;;;;;;14.30;8.23;;;;;;;3.67;100.00;93978.75;4894047;29;20056;-48
2022/11/07 04:50:03;;;;;;;14.27;7.23;;;;;;;3.83;100.00;93976.59;4894655;29;20060;-51
2022/11/07 04:52:29;;;;;;;14.85;7.40;;;;;;;3.80;100.00;93980.84;4893142;29;20461;-55
2022/11/07 04:54:56;;;;;;;13.57;7.13;;;;;;;3.76;100.00;93976.50;4894804;29;20045;-52
2022/11/07 04:57:23;;;;;;;14.88;7.18;;;;;;;3.88;100.00;93978.97;4892950;29;20490;-56
2022/11/07 04:59:49;;;;;;;15.63;7.80;;;;;;;3.98;100.00;93978.31;4894432;29;20048;-50
2022/11/07 05:02:16;;;;;;;15.37;7.93;;;;;;;4.10;100.00;93977.25;4894252;29;20052;-56
2022/11/07 05:04:43;;;;;;;19.35;10.35;;;;;;;4.20;100.00;93968.47;4877176;29;20056;-53
2022/11/07 05:07:10;;;;;;;21.08;9.45;;;;;;;4.27;100.00;93977.84;4864224;29;20497;-54
2022/11/07 05:09:36;;;;;;;16.20;8.40;;;;;;;4.33;100.00;93985.25;4856725;29;20055;-52
2022/11/07 05:12:03;;;;;;;18.83;8.25;;;;;;;4.42;100.00;93989.59;4856790;29;20601;-54
2022/11/07 05:14:30;;;;;;;22.10;10.40;;;;;;;4.38;100.00;93986.84;4856673;29;20109;-53
2022/11/07 05:16:57;;;;;;;16.50;7.85;;;;;;;4.43;100.00;93994.66;4857281;29;20061;-54
2022/11/07 05:19:23;;;;;;;15.57;7.55;;;;;;;4.35;100.00;94001.19;4856447;29;20056;-51
2022/11/07 05:23:10;;;;;;;15.43;8.02;;;;;;;4.40;100.00;94006.28;4856673;29;20056;-53
2022/11/07 05:24:37;;;;;;;24.15;13.38;;;;;;;4.43;100.00;94008.25;4874914;29;20443;-52
2022/11/07 05:27:05;;;;;;;25.60;14.07;;;;;;;4.43;100.00;94002.81;4875040;29;20076;-54
2022/11/07 05:29:32;;;;;;;15.63;8.27;;;;;;;4.47;100.00;94009.06;4874808;29;20116;-56
2022/11/07 05:31:58;;;;;;;16.10;7.88;;;;;;;4.48;100.00;94007.13;4874929;29;20045;-52
2022/11/07 05:34:25;;;;;;;17.77;8.77;;;;;;;4.46;100.00;94015.66;4874995;29;20395;-53
2022/11/07 05:36:52;;;;;;;20.17;10.85;;;;;;;4.47;100.00;94011.03;4858092;29;20056;-52
2022/11/07 05:39:19;;;;;;;18.43;9.17;;;;;;;4.49;100.00;94009.47;4862721;29;20053;-49
2022/11/07 05:41:46;;;;;;;16.60;8.85;;;;;;;4.53;100.00;94004.09;4876114;29;20059;-54
2022/11/07 05:44:12;;;;;;;22.17;11.43;;;;;;;4.54;100.00;94005.63;4893573;29;20608;-56
2022/11/07 05:46:39;;;;;;;22.83;10.70;;;;;;;4.51;100.00;94009.88;4876568;29;20298;-53
2022/11/07 05:49:06;;;;;;;16.58;9.00;;;;;;;4.35;100.00;94001.97;4892706;29;20057;-51
2022/11/07 05:51:32;;;;;;;20.80;10.80;;;;;;;4.36;100.00;94005.47;4893080;29;20049;-50
2022/11/07 05:53:59;;;;;;;17.77;9.55;;;;;;;4.22;100.00;94008.03;4892346;29;20045;-51
2022/11/07 05:56:26;;;;;;;17.95;8.90;;;;;;;4.17;100.00;94015.38;4893147;29;20053;-53
2022/11/07 05:58:52;;;;;;;24.33;12.65;;;;;;;4.05;100.00;94012.13;4893057;29;20044;-53
2022/11/07 06:01:19;;;;;;;30.75;15.50;;;;;;;3.98;100.00;94005.47;4882690;29;20071;-51
2022/11/07 06:03:45;;;;;;;35.33;16.40;;;;;;;3.95;100.00;94013.59;4873972;29;20104;-55
2022/11/07 06:06:12;;;;;;;27.08;13.90;;;;;;;3.94;100.00;94015.53;4874620;29;20064;-54
2022/11/07 06:08:39;;;;;;;21.27;11.15;;;;;;;3.89;100.00;94004.19;4873969;29;20053;-54
2022/11/07 06:11:05;;;;;;;24.70;11.38;;;;;;;3.82;100.00;94007.59;4874106;29;20055;-55
2022/11/07 06:13:32;;;;;;;24.85;11.38;;;;;;;3.70;100.00;94010.56;4857425;29;20445;-56
2022/11/07 06:15:58;;;;;;;29.43;14.17;;;;;;;3.68;100.00;94013.66;4858327;29;20100;-52
2022/11/07 06:18:25;;;;;;;28.30;12.85;;;;;;;3.57;100.00;94012.72;4874336;29;20053;-51
2022/11/07 06:20:52;;;;;;;26.50;12.38;;;;;;;3.64;100.00;94020.94;4873532;29;20205;-59
2022/11/07 06:23:18;;;;;;;24.63;11.73;;;;;;;3.55;100.00;94021.25;4874176;29;20075;-54
2022/11/07 06:25:46;;;;;;;23.77;11.55;;;;;;;3.36;100.00;94022.16;4873719;29;20112;-54
2022/11/07 06:28:13;;;;;;;27.20;13.03;;;;;;;3.43;100.00;94017.97;4873940;29;20096;-49
2022/11/07 06:30:40;;;;;;;20.83;10.00;;;;;;;3.42;100.00;94019.13;4856804;29;20061;-51
2022/11/07 06:33:11;;;;;;;18.58;9.57;;;;;;;3.44;100.00;94023.03;4873711;29;20104;-50
2022/11/07 06:35:39;;;;;;;19.33;9.77;;;;;;;3.47;100.00;94016.88;4873306;29;20055;-51
2022/11/07 06:38:11;;;;;;;19.35;9.93;;;;;;;3.37;100.00;94015.56;4873731;29;20612;-53
2022/11/07 06:40:40;;;;;;;17.60;9.23;;;;;;;3.40;100.00;94017.56;4887929;29;20048;-54
2022/11/07 06:43:16;;;;;;;19.05;9.55;;;;;;;3.52;100.00;94018.47;4880625;29;20081;-54
2022/11/07 06:45:44;;;;;;;20.10;10.05;;;;;;;3.59;100.00;94024.00;4865280;29;20501;-52
2022/11/07 06:48:12;;;;;;;17.50;9.45;;;;;;;3.62;100.00;94014.34;4862832;29;20049;-55
2022/11/07 06:50:39;;;;;;;22.05;12.45;;;;;;;3.44;100.00;94017.63;4864856;29;20045;-54
2022/11/07 06:53:08;;;;;;;20.50;10.93;;;;;;;3.72;100.00;94028.06;4864775;29;20049;-50
2022/11/07 06:55:36;;;;;;;18.92;10.27;;;;;;;3.71;100.00;94026.47;4864179;29;20057;-51
2022/11/07 06:58:04;;;;;;;21.38;10.18;;;;;;;3.71;100.00;94026.47;4862813;29;20509;-50
2022/11/07 07:00:33;;;;;;;19.60;10.30;;;;;;;3.56;100.00;94036.38;4856503;29;20049;-52
2022/11/07 07:02:59;;;;;;;21.85;11.30;;;;;;;3.52;100.00;94034.75;4854286;29;20100;-51
2022/11/07 07:05:26;;;;;;;22.73;10.70;;;;;;;3.79;100.00;94032.78;4855990;29;20053;-51
2022/11/07 07:07:54;;;;;;;19.70;10.68;;;;;;;4.04;100.00;94035.00;4858410;29;20133;-53
2022/11/07 07:10:23;;;;;;;20.38;10.50;;;;;;;4.32;100.00;94038.03;4859080;29;20045;-55
2022/11/07 07:12:54;;;;;;;21.60;11.10;;;;;;;4.36;100.00;94041.56;4858856;29;20049;-51
2022/11/07 07:15:20;;;;;;;22.15;12.40;;;;;;;4.80;100.00;94048.19;4858783;29;20056;-51
2022/11/07 07:17:48;;;;;;;23.43;11.10;;;;;;;5.05;100.00;94042.16;4858213;29;20053;-53
2022/11/07 07:20:14;;;;;;;21.10;11.35;;;;;;;5.51;97.18;94041.72;4858520;29;20108;-51
2022/11/07 07:22:43;;;;;;;20.88;10.75;;;;;;;5.45;97.88;94041.28;4858613;29;20053;-49
2022/11/07 07:25:10;;;;;;;18.40;10.35;;;;;;;6.48;94.01;94045.66;4858682;29;20050;-53
2022/11/07 07:27:37;;;;;;;19.40;10.43;;;;;;;6.31;93.35;94046.38;4858055;29;20049;-55
2022/11/07 07:30:04;;;;;;;22.17;10.90;;;;;;;6.59;90.01;94057.34;4858282;29;20045;-51
2022/11/07 07:32:30;;;;;;;17.80;10.48;;;;;;;6.70;92.57;94049.22;4838565;29;20439;-53
2022/11/07 07:34:57;;;;;;;21.48;10.73;;;;;;;5.75;94.69;94070.22;4858249;29;20056;-51
2022/11/07 07:37:24;;;;;;;19.40;11.88;;;;;;;5.94;95.20;94067.22;4858554;29;20068;-50
2022/11/07 07:39:51;;;;;;;16.90;10.02;;;;;;;7.01;88.08;94063.25;4858232;29;20070;-56
2022/11/07 07:42:18;;;;;;;16.20;9.43;;;;;;;7.11;86.89;94075.34;4895731;29;20053;-56
2022/11/07 07:44:44;;;;;;;18.38;10.95;;;;;;;6.73;88.08;94064.00;4895345;29;20052;-48
2022/11/07 07:47:11;;;;;;;19.00;10.45;;;;;;;7.69;86.06;94070.66;4895550;29;20056;-54
2022/11/07 07:49:38;;;;;;;17.23;10.25;;;;;;;8.65;82.17;94066.78;4894925;29;20192;-54
2022/11/07 07:52:05;;;;;;;16.75;9.35;;;;;;;9.36;77.71;94064.75;4878565;29;20091;-52
2022/11/07 07:54:31;;;;;;;17.27;9.47;;;;;;;7.91;81.57;94071.38;4894629;29;20049;-51
2022/11/07 07:57:00;;;;;;;15.45;9.63;;;;;;;7.37;84.83;94063.25;4878478;29;20056;-51
2022/11/07 07:59:26;;;;;;;16.88;9.63;;;;;;;8.24;81.56;94058.38;4895174;29;20111;-49
2022/11/07 08:01:53;;;;;;;19.83;9.70;;;;;;;9.14;80.44;94061.41;4894710;29;20056;-51
2022/11/07 08:04:22;;;;;;;20.70;9.55;;;;;;;10.37;73.32;94061.81;4895225;29;20071;-54
2022/11/07 08:06:49;;;;;;;16.57;9.20;;;;;;;9.00;76.40;94065.78;4878090;29;20441;-54
2022/11/07 08:09:16;;;;;;;16.33;9.23;;;;;;;9.49;76.45;94059.56;4895035;29;20509;-53
2022/11/07 08:11:42;;;;;;;14.52;9.02;;;;;;;10.60;72.93;94055.63;4894436;29;20058;-54
2022/11/07 08:14:10;;;;;;;15.45;9.10;;;;;;;12.31;66.45;94062.28;4878010;29;20059;-50
2022/11/07 08:16:37;;;;;;;13.32;7.93;;;;;;;14.22;59.84;94069.75;4894165;29;20060;-51
2022/11/07 08:19:03;;;;;;;13.57;8.40;;;;;;;12.87;62.46;94066.28;4894583;29;20044;-53
2022/11/07 08:21:30;;;;;;;13.40;8.48;;;;;;;12.47;62.55;94061.59;4894399;29;20045;-54
2022/11/07 08:23:57;;;;;;;13.93;7.90;;;;;;;11.90;64.70;94062.69;4878201;29;20053;-48
2022/11/07 08:26:24;;;;;;;12.35;7.53;;;;;;;11.15;68.10;94054.47;4894872;29;20442;-56
2022/11/07 08:28:53;;;;;;;13.15;8.40;;;;;;;12.08;65.22;94057.63;4894566;29;20053;-54
2022/11/07 08:31:20;;;;;;;14.90;8.30;;;;;;;12.44;65.04;94054.19;4894388;29;20052;-51
2022/11/07 08:33:47;;;;;;;15.30;8.07;;;;;;;12.83;64.35;94051.81;4894098;29;20048;-53
2022/11/07 08:36:14;;;;;;;14.07;8.32;;;;;;;12.25;65.93;94055.72;4894482;29;20426;-50
2022/11/07 08:38:40;;;;;;;12.35;7.18;;;;;;;12.02;67.03;94053.06;4894175;29;20041;-52
2022/11/07 08:41:07;;;;;;;13.13;6.90;;;;;;;12.46;66.98;94046.28;4876158;29;20406;-47
2022/11/07 08:43:33;;;;;;;11.23;7.13;;;;;;;12.06;67.28;94043.53;4875518;29;20112;-49
2022/11/07 08:46:00;;;;;;;10.75;6.93;;;;;;;12.41;68.07;94051.50;4858999;29;20057;-50
2022/11/07 08:48:27;;;;;;;11.10;6.70;;;;;;;13.05;64.78;94036.34;4875998;29;20057;-51
2022/11/07 08:50:56;;;;;;;13.23;6.88;;;;;;;12.79;65.07;94038.88;4875123;29;20049;-53
2022/11/07 08:53:24;;;;;;;12.15;6.75;;;;;;;12.64;66.69;94042.41;4875445;29;20053;-55
2022/11/07 08:55:51;;;;;;;12.07;6.60;;;;;;;12.23;68.40;94047.13;4875200;29;20073;-52
2022/11/07 08:58:18;;;;;;;11.18;6.10;;;;;;;11.85;70.10;94041.94;4875346;29;20057;-55
2022/11/07 09:00:45;;;;;;;11.05;6.15;;;;;;;12.16;70.16;94045.28;4875087;29;20121;-54
2022/11/07 09:03:12;;;;;;;12.45;6.13;;;;;;;13.41;66.74;94049.34;4875325;29;20037;-52
2022/11/07 09:05:59;;;;;;;8.60;4.68;;;;;;;13.14;66.27;94042.06;4874185;29;20393;-54
2022/11/07 09:08:26;;;;;;;8.70;3.93;;;;;;;12.64;67.58;94045.91;4858732;29;20057;-52
2022/11/07 09:10:52;;;;;;;6.63;3.42;;;;;;;13.52;65.66;94052.63;4874207;29;20534;-52
2022/11/07 09:13:19;;;;;;;5.53;2.97;;;;;;;14.24;62.75;94058.28;4875248;29;20494;-52
2022/11/07 09:15:47;;;;;;;6.53;2.72;;;;;;;14.86;59.85;94056.16;4874840;29;20055;-56
2022/11/07 09:18:18;;;;;;;6.95;2.85;;;;;;;14.38;60.83;94053.13;4875266;29;20052;-56
2022/11/07 09:20:44;;;;;;;6.47;2.60;;;;;;;15.84;57.98;94040.88;4874831;29;20051;-52
2022/11/07 09:23:11;;;;;;;5.55;2.60;;;;;;;16.62;54.19;94042.13;4875197;29;20040;-53
2022/11/07 09:25:38;;;;;;;6.38;2.40;;;;;;;16.81;54.18;94036.69;4874713;29;20113;-53
2022/11/07 09:28:04;;;;;;;4.38;2.35;;;;;;;15.53;56.61;94046.22;4858339;29;20045;-50
2022/11/07 09:30:31;;;;;;;4.88;2.40;;;;;;;13.93;61.24;94044.91;4856895;29;20468;-54
2022/11/07 09:32:58;;;;;;;5.70;2.40;;;;;;;15.61;57.51;94047.53;4875108;29;20059;-48
2022/11/07 09:35:26;;;;;;;5.00;2.17;;;;;;;15.97;55.94;94057.44;4874748;29;20063;-49
2022/11/07 09:37:52;;;;;;;4.80;2.35;;;;;;;14.41;59.44;94061.75;4842636;29;20145;-53
2022/11/07 09:40:23;;;;;;;5.18;2.35;;;;;;;14.67;59.53;94063.41;4886540;29;20105;-52
2022/11/07 09:43:14;;;;;;;5.13;2.60;;;;;;;12.85;65.61;94063.94;4876429;29;20524;-51
2022/11/07 09:45:57;;;;;;;5.57;2.37;;;;;;;12.50;67.58;94071.00;4893172;29;20425;-53
2022/11/07 09:48:30;;;;;;;7.13;2.92;;;;;;;12.39;68.73;94063.72;4893415;29;20553;-53
2022/11/07 09:50:57;;;;;;;5.35;2.80;;;;;;;12.91;68.12;94067.75;4892621;29;20755;-51
2022/11/07 09:53:35;;;;;;;5.22;2.67;;;;;;;13.41;65.19;94070.63;4893400;29;20067;-51
2022/11/07 09:56:06;;;;;;;5.40;2.20;;;;;;;13.28;65.76;94070.47;4892168;29;20689;-52
2022/11/07 09:58:36;;;;;;;6.93;2.60;;;;;;;13.09;66.89;94061.84;4892996;29;20497;-52
2022/11/07 10:01:05;;;;;;;4.82;2.60;;;;;;;13.11;67.39;94073.22;4893503;29;20458;-55
2022/11/07 10:03:35;;;;;;;4.00;2.17;;;;;;;13.23;66.00;94071.00;4893004;29;20494;-49
2022/11/07 10:06:16;;;;;;;4.38;2.10;;;;;;;12.84;67.38;94073.44;4876711;29;20055;-53
2022/11/07 10:08:57;;;;;;;5.88;2.45;;;;;;;13.44;66.55;94073.31;4892836;29;20396;-53
2022/11/07 10:11:29;;;;;;;5.33;2.33;;;;;;;13.61;64.25;94076.06;4893227;29;20064;-53
2022/11/07 10:14:28;;;;;;;6.30;2.10;;;;;;;13.35;65.25;94073.88;4892276;29;20477;-53
2022/11/07 10:17:32;;;;;;;5.90;2.33;;;;;;;13.92;64.08;94077.25;4862922;29;20052;-51
2022/11/07 10:20:17;;;;;;;5.07;1.80;;;;;;;13.75;63.57;94073.72;4884692;29;20283;-53
2022/11/07 10:23:22;;;;;;;4.00;1.90;;;;;;;14.88;60.31;94066.78;4892800;29;20044;-53
2022/11/07 10:25:49;;;;;;;3.60;2.00;;;;;;;13.84;63.02;94072.31;4842249;29;20065;-54
2022/11/07 10:28:17;;;;;;;4.43;1.85;;;;;;;13.49;64.57;94072.00;4892956;29;20119;-54
2022/11/07 10:30:50;;;;;;;5.55;1.88;;;;;;;13.49;64.21;94061.75;4892190;29;20092;-52
2022/11/07 10:33:31;;;;;;;4.80;1.90;;;;;;;13.99;63.13;94068.75;4892904;29;20493;-52
2022/11/07 10:36:07;;;;;;;5.38;2.00;;;;;;;15.50;59.00;94060.94;4892202;29;20865;-51
2022/11/07 10:38:34;;;;;;;3.77;1.70;;;;;;;15.10;58.66;94064.91;4892455;29;20099;-50
2022/11/07 10:41:01;;;;;;;5.10;1.92;;;;;;;14.89;59.10;94060.81;4877239;29;20486;-50
2022/11/07 10:43:33;;;;;;;3.58;1.73;;;;;;;14.92;59.34;94067.44;4877844;29;20300;-53
2022/11/07 10:46:01;;;;;;;4.55;1.88;;;;;;;15.40;57.73;94054.53;4865706;29;21709;-51
2022/11/07 10:48:29;;;;;;;4.00;1.95;;;;;;;15.80;56.36;94043.00;4859224;29;20109;-49
2022/11/07 10:50:56;;;;;;;3.70;2.10;;;;;;;16.29;55.19;94052.78;4876994;29;21778;-56
2022/11/07 10:53:25;;;;;;;6.85;2.03;;;;;;;14.81;58.98;94051.19;4877591;29;20148;-54
2022/11/07 10:55:53;;;;;;;4.63;2.20;;;;;;;15.07;58.46;94042.91;4877143;29;20308;-55
2022/11/07 10:58:27;;;;;;;4.80;1.90;;;;;;;15.82;56.28;94042.56;4877703;29;20049;-52
2022/11/07 11:01:07;;;;;;;4.70;2.03;;;;;;;16.31;54.74;94040.03;4860461;29;20088;-51
2022/11/07 11:03:44;;;;;;;4.37;1.90;;;;;;;16.72;53.07;94029.88;4877297;29;20489;-50
2022/11/07 11:06:17;;;;;;;4.55;2.00;;;;;;;16.58;53.92;94041.50;4877556;29;20037;-54
2022/11/07 11:08:46;;;;;;;3.72;1.80;;;;;;;17.32;52.26;94034.34;4860276;29;20060;-50
2022/11/07 11:11:27;;;;;;;5.32;2.00;;;;;;;16.72;53.28;94029.06;4877081;29;20427;-53
2022/11/07 11:14:11;;;;;;;3.92;1.80;;;;;;;16.89;52.56;94030.44;4859957;29;20044;-52
2022/11/07 11:16:40;;;;;;;3.30;1.80;;;;;;;16.77;53.18;94025.75;4876996;29;20108;-52
2022/11/07 11:19:22;;;;;;;4.03;1.52;;;;;;;15.98;54.29;94029.31;4877534;29;20041;-50
2022/11/07 11:21:51;;;;;;;3.58;1.80;;;;;;;16.72;52.70;94018.00;4876829;29;20053;-52
2022/11/07 11:24:29;;;;;;;4.68;2.30;;;;;;;15.27;56.10;94021.38;4877074;29;20045;-51
2022/11/07 11:27:12;;;;;;;4.13;1.60;;;;;;;15.56;56.14;94020.44;4876619;29;20337;-52
2022/11/07 11:30:14;;;;;;;3.60;2.00;;;;;;;14.78;57.63;94024.41;4877163;29;20167;-50
2022/11/07 11:33:15;;;;;;;4.22;1.85;;;;;;;16.23;53.82;94011.06;4873836;29;20060;-52
2022/11/07 11:35:45;;;;;;;5.00;2.17;;;;;;;16.71;54.28;94017.22;4869333;29;20055;-53
2022/11/07 11:38:21;;;;;;;4.72;1.10;;;;;;;17.50;48.29;94010.66;4877244;29;20049;-54
2022/11/07 11:40:55;;;;;;;3.20;1.50;;;;;;;17.13;49.80;94014.09;4892278;29;20095;-54
2022/11/07 11:43:46;;;;;;;4.97;1.10;;;;;;;16.16;50.98;94006.56;4895159;29;20045;-50
2022/11/07 11:46:22;;;;;;;7.63;3.38;;;;;;;16.29;51.08;94000.94;4878900;29;20717;-52
2022/11/07 11:49:12;;;;;;;4.28;1.30;;;;;;;16.18;51.41;94009.66;4895056;29;20044;-51